sensor_id;sensor_type;location;lat;lon;timestamp;pressure;altitude;pressure_sealevel;temperature;humidity
2397;BME280;1209;48.410;9.054;2023-05-22T00:01:09;95872.94;;;14.77;100.00
2397;BME280;1209;48.410;9.054;2023-05-22T00:03:34;95874.97;;;14.75;100.00
2397;BME280;1209;48.410;9.054;2023-05-22T00:06:01;95876.84;;;14.62;100.00
2397;BME280;1209;48.410;9.054;2023-05-22T00:08:26;95874.69;;;14.45;100.00
2397;BME280;1209;48.410;9.054;2023-05-22T00:10:52;95876.69;;;14.50;100.00
2397;BME280;1209;48.410;9.054;2023-05-22T00:13:18;95871.63;;;14.55;100.00
2397;BME280;1209;48.410;9.054;2023-05-22T00:15:43;95878.09;;;14.53;100.00
2397;BME280;1209;48.410;9.054;2023-05-22T00:18:09;95874.00;;;14.63;100.00
2397;BME280;1209;48.410;9.054;2023-05-22T00:20:34;95873.03;;;14.58;100.00
2397;BME280;1209;48.410;9.054;2023-05-22T00:23:05;95876.25;;;14.60;100.00
2397;BME280;1209;48.410;9.054;2023-05-22T00:25:35;95866.31;;;14.68;100.00
2397;BME280;1209;48.410;9.054;2023-05-22T00:28:00;95864.31;;;14.64;100.00
2397;BME280;1209;48.410;9.054;2023-05-22T00:30:26;95866.53;;;14.60;100.00
2397;BME280;1209;48.410;9.054;2023-05-22T00:32:51;95861.88;;;14.62;100.00
2397;BME280;1209;48.410;9.054;2023-05-22T00:35:16;95864.34;;;14.57;100.00
2397;BME280;1209;48.410;9.054;2023-05-22T00:37:42;95859.72;;;14.53;100.00
2397;BME280;1209;48.410;9.054;2023-05-22T00:40:09;95854.88;;;14.49;100.00
2397;BME280;1209;48.410;9.054;2023-05-22T00:42:35;95855.50;;;14.38;100.00
2397;BME280;1209;48.410;9.054;2023-05-22T00:45:00;95857.56;;;14.30;100.00
2397;BME280;1209;48.410;9.054;2023-05-22T00:47:25;95852.88;;;14.38;100.00
2397;BME280;1209;48.410;9.054;2023-05-22T00:49:51;95855.13;;;14.28;100.00
2397;BME280;1209;48.410;9.054;2023-05-22T00:52:17;95856.94;;;14.28;100.00
2397;BME280;1209;48.410;9.054;2023-05-22T00:54:44;95859.00;;;14.12;100.00
2397;BME280;1209;48.410;9.054;2023-05-22T00:57:10;95862.63;;;14.11;100.00
2397;BME280;1209;48.410;9.054;2023-05-22T00:59:35;95858.81;;;14.07;100.00
2397;BME280;1209;48.410;9.054;2023-05-22T01:02:01;95866.69;;;14.07;100.00
2397;BME280;1209;48.410;9.054;2023-05-22T01:04:27;95869.91;;;14.09;100.00
2397;BME280;1209;48.410;9.054;2023-05-22T01:06:53;95869.34;;;14.01;100.00
2397;BME280;1209;48.410;9.054;2023-05-22T01:09:19;95866.53;;;13.96;100.00
2397;BME280;1209;48.410;9.054;2023-05-22T01:11:54;95866.94;;;13.93;100.00
2397;BME280;1209;48.410;9.054;2023-05-22T01:14:42;95865.13;;;13.86;100.00
2397;BME280;1209;48.410;9.054;2023-05-22T01:17:21;95867.56;;;13.88;100.00
2397;BME280;1209;48.410;9.054;2023-05-22T01:20:01;95862.69;;;13.92;100.00
2397;BME280;1209;48.410;9.054;2023-05-22T01:22:59;95868.34;;;13.95;100.00
2397;BME280;1209;48.410;9.054;2023-05-22T01:33:22;95878.66;;;13.90;100.00
2397;BME280;1209;48.410;9.054;2023-05-22T01:35:50;95882.47;;;13.94;100.00
2397;BME280;1209;48.410;9.054;2023-05-22T01:38:18;95876.03;;;13.90;100.00
2397;BME280;1209;48.410;9.054;2023-05-22T01:40:45;95882.88;;;13.91;100.00
2397;BME280;1209;48.410;9.054;2023-05-22T01:43:12;95881.28;;;13.83;100.00
2397;BME280;1209;48.410;9.054;2023-05-22T01:45:37;95880.47;;;13.83;100.00
2397;BME280;1209;48.410;9.054;2023-05-22T01:48:02;95883.53;;;13.80;100.00
2397;BME280;1209;48.410;9.054;2023-05-22T01:50:28;95889.34;;;13.89;100.00
2397;BME280;1209;48.410;9.054;2023-05-22T01:53:18;95885.72;;;13.83;100.00
2397;BME280;1209;48.410;9.054;2023-05-22T01:56:05;95893.38;;;13.71;100.00
2397;BME280;1209;48.410;9.054;2023-05-22T01:58:45;95890.38;;;13.74;100.00
2397;BME280;1209;48.410;9.054;2023-05-22T02:01:13;95885.34;;;13.73;100.00
2397;BME280;1209;48.410;9.054;2023-05-22T02:03:42;95889.38;;;13.75;100.00
2397;BME280;1209;48.410;9.054;2023-05-22T02:06:12;95889.38;;;13.55;100.00
2397;BME280;1209;48.410;9.054;2023-05-22T02:08:38;95890.59;;;13.73;100.00
2397;BME280;1209;48.410;9.054;2023-05-22T02:11:06;95887.75;;;13.81;100.00
2397;BME280;1209;48.410;9.054;2023-05-22T02:13:32;95886.75;;;13.82;100.00
2397;BME280;1209;48.410;9.054;2023-05-22T02:15:59;95884.09;;;13.89;100.00
2397;BME280;1209;48.410;9.054;2023-05-22T02:18:28;95883.72;;;13.85;100.00
2397;BME280;1209;48.410;9.054;2023-05-22T02:20:57;95885.72;;;13.83;100.00
2397;BME280;1209;48.410;9.054;2023-05-22T02:23:23;95887.75;;;13.81;100.00
2397;BME280;1209;48.410;9.054;2023-05-22T02:25:49;95891.19;;;13.81;100.00
2397;BME280;1209;48.410;9.054;2023-05-22T02:28:14;95893.59;;;13.90;100.00
2397;BME280;1209;48.410;9.054;2023-05-22T02:30:39;95897.44;;;13.87;100.00
2397;BME280;1209;48.410;9.054;2023-05-22T02:33:05;95889.97;;;13.84;100.00
2397;BME280;1209;48.410;9.054;2023-05-22T02:35:31;95892.59;;;13.77;100.00
2397;BME280;1209;48.410;9.054;2023-05-22T02:37:56;95901.88;;;13.80;100.00
2397;BME280;1209;48.410;9.054;2023-05-22T02:40:21;95905.09;;;13.62;100.00
2397;BME280;1209;48.410;9.054;2023-05-22T02:42:47;95909.13;;;13.65;100.00
2397;BME280;1209;48.410;9.054;2023-05-22T02:45:12;95911.38;;;13.61;100.00
2397;BME280;1209;48.410;9.054;2023-05-22T02:47:37;95903.09;;;13.64;100.00
2397;BME280;1209;48.410;9.054;2023-05-22T02:50:03;95902.09;;;13.72;100.00
2397;BME280;1209;48.410;9.054;2023-05-22T02:52:28;95902.28;;;13.83;100.00
2397;BME280;1209;48.410;9.054;2023-05-22T02:54:54;95898.44;;;13.99;100.00
2397;BME280;1209;48.410;9.054;2023-05-22T02:57:20;95895.81;;;13.86;100.00
2397;BME280;1209;48.410;9.054;2023-05-22T02:59:45;95899.25;;;13.80;100.00
2397;BME280;1209;48.410;9.054;2023-05-22T03:02:10;95900.88;;;13.88;100.00
2397;BME280;1209;48.410;9.054;2023-05-22T03:04:36;95891.38;;;13.93;100.00
2397;BME280;1209;48.410;9.054;2023-05-22T03:07:02;95899.47;;;13.85;100.00
2397;BME280;1209;48.410;9.054;2023-05-22T03:09:28;95897.03;;;13.83;100.00
2397;BME280;1209;48.410;9.054;2023-05-22T03:11:53;95898.47;;;13.79;100.00
2397;BME280;1209;48.410;9.054;2023-05-22T03:14:19;95899.06;;;13.88;100.00
2397;BME280;1209;48.410;9.054;2023-05-22T03:16:44;95901.88;;;13.80;100.00
2397;BME280;1209;48.410;9.054;2023-05-22T03:19:11;95897.84;;;13.91;100.00
2397;BME280;1209;48.410;9.054;2023-05-22T03:21:37;95895.22;;;13.91;100.00
2397;BME280;1209;48.410;9.054;2023-05-22T03:24:02;95896.00;;;13.98;100.00
2397;BME280;1209;48.410;9.054;2023-05-22T03:26:28;95891.19;;;13.88;100.00
2397;BME280;1209;48.410;9.054;2023-05-22T03:28:54;95890.75;;;13.98;100.00
2397;BME280;1209;48.410;9.054;2023-05-22T03:31:20;95900.44;;;14.04;100.00
2397;BME280;1209;48.410;9.054;2023-05-22T03:33:46;95895.16;;;14.17;100.00
2397;BME280;1209;48.410;9.054;2023-05-22T03:36:11;95892.31;;;14.18;100.00
2397;BME280;1209;48.410;9.054;2023-05-22T03:38:37;95888.69;;;14.13;100.00
2397;BME280;1209;48.410;9.054;2023-05-22T03:41:02;95885.06;;;14.21;100.00
2397;BME280;1209;48.410;9.054;2023-05-22T03:43:27;95892.72;;;14.29;100.00
2397;BME280;1209;48.410;9.054;2023-05-22T03:45:52;95877.94;;;14.34;100.00
2397;BME280;1209;48.410;9.054;2023-05-22T03:48:19;95886.25;;;14.31;100.00
2397;BME280;1209;48.410;9.054;2023-05-22T03:50:44;95886.41;;;14.36;100.00
2397;BME280;1209;48.410;9.054;2023-05-22T03:53:09;95880.53;;;14.41;100.00
2397;BME280;1209;48.410;9.054;2023-05-22T03:55:35;95883.38;;;14.46;100.00
2397;BME280;1209;48.410;9.054;2023-05-22T03:58:00;95877.13;;;14.47;100.00
2397;BME280;1209;48.410;9.054;2023-05-22T04:00:25;95879.75;;;14.47;100.00
2397;BME280;1209;48.410;9.054;2023-05-22T04:02:51;95876.31;;;14.40;100.00
2397;BME280;1209;48.410;9.054;2023-05-22T04:05:16;95883.78;;;14.49;100.00
2397;BME280;1209;48.410;9.054;2023-05-22T04:07:41;95885.38;;;14.51;100.00
2397;BME280;1209;48.410;9.054;2023-05-22T04:10:07;95883.81;;;14.43;100.00
2397;BME280;1209;48.410;9.054;2023-05-22T04:12:32;95886.59;;;14.48;100.00
2397;BME280;1209;48.410;9.054;2023-05-22T04:14:58;95886.97;;;14.58;100.00
2397;BME280;1209;48.410;9.054;2023-05-22T04:17:29;95885.34;;;14.57;100.00
2397;BME280;1209;48.410;9.054;2023-05-22T04:19:54;95891.00;;;14.61;100.00
2397;BME280;1209;48.410;9.054;2023-05-22T04:22:22;95892.19;;;14.65;100.00
2397;BME280;1209;48.410;9.054;2023-05-22T04:24:47;95891.59;;;14.63;100.00
2397;BME280;1209;48.410;9.054;2023-05-22T04:27:13;95890.19;;;14.60;100.00
2397;BME280;1209;48.410;9.054;2023-05-22T04:29:39;95891.00;;;14.61;100.00
2397;BME280;1209;48.410;9.054;2023-05-22T04:32:06;95899.47;;;14.69;100.00
2397;BME280;1209;48.410;9.054;2023-05-22T04:34:34;95905.13;;;14.73;100.00
2397;BME280;1209;48.410;9.054;2023-05-22T04:37:01;95898.03;;;14.73;100.00
2397;BME280;1209;48.410;9.054;2023-05-22T04:39:27;95906.53;;;14.75;100.00
2397;BME280;1209;48.410;9.054;2023-05-22T04:41:53;95909.34;;;14.80;100.00
2397;BME280;1209;48.410;9.054;2023-05-22T04:44:18;95914.75;;;14.86;100.00
2397;BME280;1209;48.410;9.054;2023-05-22T04:46:47;95919.81;;;14.87;100.00
2397;BME280;1209;48.410;9.054;2023-05-22T04:49:12;95918.78;;;14.88;100.00
2397;BME280;1209;48.410;9.054;2023-05-22T04:51:38;95921.47;;;14.82;100.00
2397;BME280;1209;48.410;9.054;2023-05-22T04:54:03;95929.69;;;14.92;100.00
2397;BME280;1209;48.410;9.054;2023-05-22T04:56:29;95929.28;;;14.95;100.00
2397;BME280;1209;48.410;9.054;2023-05-22T04:58:55;95932.09;;;15.00;100.00
2397;BME280;1209;48.410;9.054;2023-05-22T05:01:21;95929.63;;;15.05;100.00
2397;BME280;1209;48.410;9.054;2023-05-22T05:03:46;95932.44;;;15.10;100.00
2397;BME280;1209;48.410;9.054;2023-05-22T05:06:12;95935.84;;;15.17;100.00
2397;BME280;1209;48.410;9.054;2023-05-22T05:08:37;95929.38;;;15.20;100.00
2397;BME280;1209;48.410;9.054;2023-05-22T05:11:03;95927.94;;;15.24;100.00
2397;BME280;1209;48.410;9.054;2023-05-22T05:13:29;95926.69;;;15.26;100.00
2397;BME280;1209;48.410;9.054;2023-05-22T05:15:54;95927.53;;;15.20;100.00
2397;BME280;1209;48.410;9.054;2023-05-22T05:18:20;95924.22;;;15.31;100.00
2397;BME280;1209;48.410;9.054;2023-05-22T05:20:45;95921.56;;;15.38;100.00
2397;BME280;1209;48.410;9.054;2023-05-22T05:23:10;95923.13;;;15.46;100.00
2397;BME280;1209;48.410;9.054;2023-05-22T05:25:36;95918.16;;;15.31;100.00
2397;BME280;1209;48.410;9.054;2023-05-22T05:28:04;95923.22;;;15.32;100.00
2397;BME280;1209;48.410;9.054;2023-05-22T05:30:38;95925.41;;;15.35;100.00
2397;BME280;1209;48.410;9.054;2023-05-22T05:33:04;95919.72;;;15.38;100.00
2397;BME280;1209;48.410;9.054;2023-05-22T05:35:29;95928.47;;;15.32;100.00
2397;BME280;1209;48.410;9.054;2023-05-22T05:37:54;95930.84;;;15.40;100.00
2397;BME280;1209;48.410;9.054;2023-05-22T05:40:20;95922.91;;;15.47;100.00
2397;BME280;1209;48.410;9.054;2023-05-22T05:42:45;95926.34;;;15.48;100.00
2397;BME280;1209;48.410;9.054;2023-05-22T05:45:12;95928.50;;;15.57;100.00
2397;BME280;1209;48.410;9.054;2023-05-22T05:47:37;95924.19;;;15.69;100.00
2397;BME280;1209;48.410;9.054;2023-05-22T05:50:02;95931.56;;;15.86;100.00
2397;BME280;1209;48.410;9.054;2023-05-22T05:52:28;95932.25;;;15.99;100.00
2397;BME280;1209;48.410;9.054;2023-05-22T05:54:57;95932.72;;;16.15;100.00
2397;BME280;1209;48.410;9.054;2023-05-22T05:57:22;95937.22;;;16.32;100.00
2397;BME280;1209;48.410;9.054;2023-05-22T05:59:47;95939.00;;;16.57;100.00
2397;BME280;1209;48.410;9.054;2023-05-22T06:02:13;95936.97;;;16.77;100.00
2397;BME280;1209;48.410;9.054;2023-05-22T06:04:38;95940.94;;;16.98;100.00
2397;BME280;1209;48.410;9.054;2023-05-22T06:07:03;95936.69;;;17.15;100.00
2397;BME280;1209;48.410;9.054;2023-05-22T06:09:29;95938.91;;;17.30;100.00
2397;BME280;1209;48.410;9.054;2023-05-22T06:11:54;95945.25;;;17.41;100.00
2397;BME280;1209;48.410;9.054;2023-05-22T06:14:19;95947.00;;;17.47;100.00
2397;BME280;1209;48.410;9.054;2023-05-22T06:16:45;95942.34;;;17.60;100.00
2397;BME280;1209;48.410;9.054;2023-05-22T06:19:10;95944.69;;;17.80;100.00
2397;BME280;1209;48.410;9.054;2023-05-22T06:21:35;95945.31;;;18.06;100.00
2397;BME280;1209;48.410;9.054;2023-05-22T06:24:01;95948.19;;;18.16;100.00
2397;BME280;1209;48.410;9.054;2023-05-22T06:26:26;95951.50;;;18.35;100.00
2397;BME280;1209;48.410;9.054;2023-05-22T06:28:52;95953.56;;;18.44;100.00
2397;BME280;1209;48.410;9.054;2023-05-22T06:31:18;95953.38;;;18.46;100.00
2397;BME280;1209;48.410;9.054;2023-05-22T06:33:43;95950.13;;;18.44;100.00
2397;BME280;1209;48.410;9.054;2023-05-22T06:36:09;95948.53;;;18.43;100.00
2397;BME280;1209;48.410;9.054;2023-05-22T06:38:35;95946.00;;;18.48;100.00
2397;BME280;1209;48.410;9.054;2023-05-22T06:41:02;95946.59;;;18.62;100.00
2397;BME280;1209;48.410;9.054;2023-05-22T06:43:27;95952.22;;;18.65;100.00
2397;BME280;1209;48.410;9.054;2023-05-22T06:45:53;95951.19;;;18.66;100.00
2397;BME280;1209;48.410;9.054;2023-05-22T06:48:18;95950.00;;;18.74;100.00
2397;BME280;1209;48.410;9.054;2023-05-22T06:50:43;95954.34;;;18.92;100.00
2397;BME280;1209;48.410;9.054;2023-05-22T06:53:09;95955.94;;;19.04;100.00
2397;BME280;1209;48.410;9.054;2023-05-22T06:55:35;95954.03;;;19.16;100.00
2397;BME280;1209;48.410;9.054;2023-05-22T06:58:00;95958.63;;;19.49;100.00
2397;BME280;1209;48.410;9.054;2023-05-22T07:00:26;95958.53;;;19.73;100.00
2397;BME280;1209;48.410;9.054;2023-05-22T07:02:51;95967.00;;;20.03;100.00
2397;BME280;1209;48.410;9.054;2023-05-22T07:05:16;95964.09;;;20.22;100.00
2397;BME280;1209;48.410;9.054;2023-05-22T07:07:42;95964.69;;;20.40;100.00
2397;BME280;1209;48.410;9.054;2023-05-22T07:10:08;95961.50;;;20.60;100.00
2397;BME280;1209;48.410;9.054;2023-05-22T07:12:33;95969.41;;;20.77;100.00
2397;BME280;1209;48.410;9.054;2023-05-22T07:14:59;95971.66;;;20.85;100.00
2397;BME280;1209;48.410;9.054;2023-05-22T07:17:24;95974.19;;;20.97;100.00
2397;BME280;1209;48.410;9.054;2023-05-22T07:19:50;95976.59;;;20.98;100.00
2397;BME280;1209;48.410;9.054;2023-05-22T07:22:15;95972.31;;;21.19;100.00
2397;BME280;1209;48.410;9.054;2023-05-22T07:24:41;95980.81;;;21.38;100.00
2397;BME280;1209;48.410;9.054;2023-05-22T07:27:06;95982.94;;;21.36;100.00
2397;BME280;1209;48.410;9.054;2023-05-22T07:29:33;95975.75;;;21.36;100.00
2397;BME280;1209;48.410;9.054;2023-05-22T07:31:58;95974.06;;;21.52;100.00
2397;BME280;1209;48.410;9.054;2023-05-22T07:34:23;95978.53;;;21.47;100.00
2397;BME280;1209;48.410;9.054;2023-05-22T07:36:56;95977.59;;;21.63;100.00
2397;BME280;1209;48.410;9.054;2023-05-22T07:39:21;95974.66;;;21.59;100.00
2397;BME280;1209;48.410;9.054;2023-05-22T07:41:47;95974.66;;;21.59;100.00
2397;BME280;1209;48.410;9.054;2023-05-22T07:44:14;95976.00;;;21.62;100.00
2397;BME280;1209;48.410;9.054;2023-05-22T07:46:39;95975.03;;;22.00;100.00
2397;BME280;1209;48.410;9.054;2023-05-22T07:49:05;95973.81;;;22.13;100.00
2397;BME280;1209;48.410;9.054;2023-05-22T07:51:30;95981.16;;;22.27;100.00
2397;BME280;1209;48.410;9.054;2023-05-22T07:53:56;95981.44;;;22.31;100.00
2397;BME280;1209;48.410;9.054;2023-05-22T07:56:21;95983.06;;;22.37;100.00
2397;BME280;1209;48.410;9.054;2023-05-22T07:58:46;95975.53;;;22.24;100.00
2397;BME280;1209;48.410;9.054;2023-05-22T08:01:12;95984.69;;;22.38;100.00
2397;BME280;1209;48.410;9.054;2023-05-22T08:03:39;95978.41;;;22.59;100.00
2397;BME280;1209;48.410;9.054;2023-05-22T08:06:05;95978.16;;;22.61;100.00
2397;BME280;1209;48.410;9.054;2023-05-22T08:08:31;95976.84;;;22.63;100.00
2397;BME280;1209;48.410;9.054;2023-05-22T08:10:58;95976.56;;;22.60;100.00
2397;BME280;1209;48.410;9.054;2023-05-22T08:13:23;95976.19;;;22.83;100.00
2397;BME280;1209;48.410;9.054;2023-05-22T08:15:49;95982.69;;;23.03;100.00
2397;BME280;1209;48.410;9.054;2023-05-22T08:18:14;95977.38;;;23.08;100.00
2397;BME280;1209;48.410;9.054;2023-05-22T08:20:39;95974.19;;;23.16;100.00
2397;BME280;1209;48.410;9.054;2023-05-22T08:23:05;95977.72;;;23.21;100.00
2397;BME280;1209;48.410;9.054;2023-05-22T08:25:30;95966.00;;;23.33;100.00
2397;BME280;1209;48.410;9.054;2023-05-22T08:27:56;95978.34;;;23.59;100.00
2397;BME280;1209;48.410;9.054;2023-05-22T08:30:21;95972.44;;;23.52;100.00
2397;BME280;1209;48.410;9.054;2023-05-22T08:32:47;95967.69;;;23.59;100.00
2397;BME280;1209;48.410;9.054;2023-05-22T08:35:12;95966.94;;;23.79;100.00
2397;BME280;1209;48.410;9.054;2023-05-22T08:37:38;95970.94;;;23.86;100.00
2397;BME280;1209;48.410;9.054;2023-05-22T08:40:04;95969.88;;;23.93;100.00
2397;BME280;1209;48.410;9.054;2023-05-22T08:42:29;95962.41;;;23.79;100.00
2397;BME280;1209;48.410;9.054;2023-05-22T08:44:55;95968.03;;;24.13;100.00
2397;BME280;1209;48.410;9.054;2023-05-22T08:47:23;95965.09;;;24.45;100.00
2397;BME280;1209;48.410;9.054;2023-05-22T08:49:50;95962.38;;;24.71;100.00
2397;BME280;1209;48.410;9.054;2023-05-22T08:52:21;95966.84;;;24.91;100.00
2397;BME280;1209;48.410;9.054;2023-05-22T08:54:51;95968.69;;;24.95;99.09
2397;BME280;1209;48.410;9.054;2023-05-22T08:57:19;95967.47;;;24.67;98.85
2397;BME280;1209;48.410;9.054;2023-05-22T08:59:44;95966.66;;;24.72;100.00
2397;BME280;1209;48.410;9.054;2023-05-22T09:02:11;95968.81;;;24.65;100.00
2397;BME280;1209;48.410;9.054;2023-05-22T09:04:39;95957.81;;;24.82;100.00
2397;BME280;1209;48.410;9.054;2023-05-22T09:07:04;95970.31;;;25.12;99.00
2397;BME280;1209;48.410;9.054;2023-05-22T09:09:40;95964.25;;;25.45;100.00
2397;BME280;1209;48.410;9.054;2023-05-22T09:12:06;95970.38;;;25.46;99.19
2397;BME280;1209;48.410;9.054;2023-05-22T09:14:42;95970.22;;;25.27;97.94
2397;BME280;1209;48.410;9.054;2023-05-22T09:17:09;95962.03;;;25.08;100.00
2397;BME280;1209;48.410;9.054;2023-05-22T09:19:36;95964.66;;;25.72;100.00
2397;BME280;1209;48.410;9.054;2023-05-22T09:22:02;95958.78;;;25.70;99.04
2397;BME280;1209;48.410;9.054;2023-05-22T09:24:28;95959.72;;;26.24;94.76
2397;BME280;1209;48.410;9.054;2023-05-22T09:26:53;95962.69;;;26.22;96.87
2397;BME280;1209;48.410;9.054;2023-05-22T09:29:19;95963.84;;;26.11;93.86
2397;BME280;1209;48.410;9.054;2023-05-22T09:31:44;95962.88;;;25.97;93.90
2397;BME280;1209;48.410;9.054;2023-05-22T09:34:11;95957.34;;;25.83;94.98
2397;BME280;1209;48.410;9.054;2023-05-22T09:36:39;95961.22;;;26.01;100.00
2397;BME280;1209;48.410;9.054;2023-05-22T09:39:05;95959.53;;;26.15;97.94
2397;BME280;1209;48.410;9.054;2023-05-22T09:41:36;95962.31;;;26.00;98.34
2397;BME280;1209;48.410;9.054;2023-05-22T09:44:14;95958.41;;;26.55;97.62
2397;BME280;1209;48.410;9.054;2023-05-22T09:46:44;95960.00;;;25.88;97.28
2397;BME280;1209;48.410;9.054;2023-05-22T09:49:10;95959.66;;;26.29;96.63
2397;BME280;1209;48.410;9.054;2023-05-22T09:51:38;95956.13;;;26.39;95.07
2397;BME280;1209;48.410;9.054;2023-05-22T09:54:06;95955.88;;;26.88;95.19
2397;BME280;1209;48.410;9.054;2023-05-22T09:56:34;95958.69;;;26.78;92.01
2397;BME280;1209;48.410;9.054;2023-05-22T09:58:59;95955.72;;;26.21;92.61
2397;BME280;1209;48.410;9.054;2023-05-22T10:01:25;95955.09;;;26.29;94.55
2397;BME280;1209;48.410;9.054;2023-05-22T10:03:53;95959.09;;;26.37;92.03
2397;BME280;1209;48.410;9.054;2023-05-22T10:06:20;95957.09;;;27.24;87.24
2397;BME280;1209;48.410;9.054;2023-05-22T10:08:54;95959.13;;;27.14;81.84
2397;BME280;1209;48.410;9.054;2023-05-22T10:11:24;95962.84;;;26.36;88.77
2397;BME280;1209;48.410;9.054;2023-05-22T10:13:50;95960.59;;;26.48;88.97
2397;BME280;1209;48.410;9.054;2023-05-22T10:16:15;95956.94;;;26.00;89.69
2397;BME280;1209;48.410;9.054;2023-05-22T10:18:44;95955.84;;;25.72;90.59
2397;BME280;1209;48.410;9.054;2023-05-22T10:21:10;95961.44;;;26.44;89.37
2397;BME280;1209;48.410;9.054;2023-05-22T10:23:37;95956.81;;;26.78;83.07
2397;BME280;1209;48.410;9.054;2023-05-22T10:26:03;95950.50;;;27.17;77.20
2397;BME280;1209;48.410;9.054;2023-05-22T10:28:41;95949.63;;;27.21;75.98
2397;BME280;1209;48.410;9.054;2023-05-22T10:31:38;95953.75;;;27.75;73.40
2397;BME280;1209;48.410;9.054;2023-05-22T10:34:09;95945.56;;;27.67;71.49
2397;BME280;1209;48.410;9.054;2023-05-22T10:36:58;95954.88;;;28.07;70.17
2397;BME280;1209;48.410;9.054;2023-05-22T10:39:42;95948.53;;;28.16;67.33
2397;BME280;1209;48.410;9.054;2023-05-22T10:42:13;95938.00;;;28.20;66.56
2397;BME280;1209;48.410;9.054;2023-05-22T10:44:38;95945.72;;;28.27;65.32
2397;BME280;1209;48.410;9.054;2023-05-22T10:47:08;95934.44;;;28.57;66.53
2397;BME280;1209;48.410;9.054;2023-05-22T10:49:34;95939.56;;;28.86;61.00
2397;BME280;1209;48.410;9.054;2023-05-22T10:52:01;95926.56;;;28.74;62.71
2397;BME280;1209;48.410;9.054;2023-05-22T10:54:44;95928.25;;;28.57;61.93
2397;BME280;1209;48.410;9.054;2023-05-22T10:57:13;95921.31;;;29.10;60.30
2397;BME280;1209;48.410;9.054;2023-05-22T10:59:40;95919.09;;;29.40;61.66
2397;BME280;1209;48.410;9.054;2023-05-22T11:02:20;95914.69;;;28.94;60.78
2397;BME280;1209;48.410;9.054;2023-05-22T11:04:46;95924.69;;;29.43;58.21
2397;BME280;1209;48.410;9.054;2023-05-22T11:07:11;95923.38;;;29.55;60.21
2397;BME280;1209;48.410;9.054;2023-05-22T11:09:41;95919.50;;;29.83;55.88
2397;BME280;1209;48.410;9.054;2023-05-22T11:12:25;95914.50;;;29.76;53.82
2397;BME280;1209;48.410;9.054;2023-05-22T11:14:53;95919.72;;;29.73;52.29
2397;BME280;1209;48.410;9.054;2023-05-22T11:17:27;95913.72;;;30.21;52.37
2397;BME280;1209;48.410;9.054;2023-05-22T11:20:01;95911.84;;;29.99;53.13
2397;BME280;1209;48.410;9.054;2023-05-22T11:27:31;95896.75;;;29.75;60.95
2397;BME280;1209;48.410;9.054;2023-05-22T11:29:58;95899.06;;;29.32;58.62
2397;BME280;1209;48.410;9.054;2023-05-22T11:32:24;95890.56;;;29.75;57.65
2397;BME280;1209;48.410;9.054;2023-05-22T11:34:49;95883.91;;;29.95;57.24
2397;BME280;1209;48.410;9.054;2023-05-22T11:37:18;95884.00;;;30.03;57.72
2397;BME280;1209;48.410;9.054;2023-05-22T11:39:59;95885.44;;;29.65;56.71
2397;BME280;1209;48.410;9.054;2023-05-22T11:42:24;95874.88;;;30.44;57.70
2397;BME280;1209;48.410;9.054;2023-05-22T11:44:50;95874.06;;;29.68;57.69
2397;BME280;1209;48.410;9.054;2023-05-22T11:47:15;95870.69;;;30.29;55.86
2397;BME280;1209;48.410;9.054;2023-05-22T11:49:41;95874.19;;;29.85;59.81
2397;BME280;1209;48.410;9.054;2023-05-22T11:52:10;95875.97;;;29.67;56.92
2397;BME280;1209;48.410;9.054;2023-05-22T11:54:35;95871.09;;;30.54;52.47
2397;BME280;1209;48.410;9.054;2023-05-22T11:57:07;95881.78;;;30.67;50.47
2397;BME280;1209;48.410;9.054;2023-05-22T11:59:33;95886.56;;;30.08;51.57
2397;BME280;1209;48.410;9.054;2023-05-22T12:01:59;95877.78;;;30.25;51.90
2397;BME280;1209;48.410;9.054;2023-05-22T12:04:24;95877.28;;;30.94;53.79
2397;BME280;1209;48.410;9.054;2023-05-22T12:06:51;95870.53;;;30.65;54.13
2397;BME280;1209;48.410;9.054;2023-05-22T12:09:16;95877.19;;;30.68;54.95
2397;BME280;1209;48.410;9.054;2023-05-22T12:11:48;95866.88;;;31.18;53.38
2397;BME280;1209;48.410;9.054;2023-05-22T12:14:14;95871.34;;;31.66;51.25
2397;BME280;1209;48.410;9.054;2023-05-22T12:16:39;95872.97;;;30.76;53.28
2397;BME280;1209;48.410;9.054;2023-05-22T12:19:09;95868.19;;;30.42;51.71
2397;BME280;1209;48.410;9.054;2023-05-22T12:21:37;95882.03;;;31.80;53.63
2397;BME280;1209;48.410;9.054;2023-05-22T12:24:04;95873.59;;;31.81;49.61
2397;BME280;1209;48.410;9.054;2023-05-22T12:26:30;95871.84;;;31.85;52.15
2397;BME280;1209;48.410;9.054;2023-05-22T12:28:57;95875.13;;;32.17;52.22
2397;BME280;1209;48.410;9.054;2023-05-22T12:31:23;95859.25;;;32.07;53.21
2397;BME280;1209;48.410;9.054;2023-05-22T12:33:52;95854.13;;;32.31;49.68
2397;BME280;1209;48.410;9.054;2023-05-22T12:36:18;95850.56;;;31.84;50.95
2397;BME280;1209;48.410;9.054;2023-05-22T12:38:43;95853.41;;;31.36;48.51
2397;BME280;1209;48.410;9.054;2023-05-22T12:41:09;95852.97;;;31.77;49.23
2397;BME280;1209;48.410;9.054;2023-05-22T12:43:34;95849.38;;;32.11;49.93
2397;BME280;1209;48.410;9.054;2023-05-22T12:45:59;95865.53;;;31.73;49.29
2397;BME280;1209;48.410;9.054;2023-05-22T12:48:25;95865.72;;;32.32;46.17
2397;BME280;1209;48.410;9.054;2023-05-22T12:50:51;95869.81;;;32.46;44.47
2397;BME280;1209;48.410;9.054;2023-05-22T12:53:16;95871.84;;;31.51;46.00
2397;BME280;1209;48.410;9.054;2023-05-22T12:55:42;95868.28;;;32.11;48.98
2397;BME280;1209;48.410;9.054;2023-05-22T12:58:07;95859.69;;;32.35;47.44
2397;BME280;1209;48.410;9.054;2023-05-22T13:00:33;95858.81;;;31.44;45.68
2397;BME280;1209;48.410;9.054;2023-05-22T13:02:59;95863.97;;;31.15;45.64
2397;BME280;1209;48.410;9.054;2023-05-22T13:05:25;95866.69;;;29.37;47.89
2397;BME280;1209;48.410;9.054;2023-05-22T13:07:50;95870.69;;;30.29;47.10
2397;BME280;1209;48.410;9.054;2023-05-22T13:10:17;95874.06;;;29.90;47.26
2397;BME280;1209;48.410;9.054;2023-05-22T13:12:43;95884.94;;;29.63;44.77
2397;BME280;1209;48.410;9.054;2023-05-22T13:15:11;95890.94;;;29.10;45.63
2397;BME280;1209;48.410;9.054;2023-05-22T13:17:38;95895.56;;;28.96;46.11
2397;BME280;1209;48.410;9.054;2023-05-22T13:20:04;95892.25;;;28.99;42.05
2397;BME280;1209;48.410;9.054;2023-05-22T13:22:29;95886.06;;;28.84;45.21
2397;BME280;1209;48.410;9.054;2023-05-22T13:24:54;95889.94;;;28.51;41.49
2397;BME280;1209;48.410;9.054;2023-05-22T13:27:20;95903.38;;;28.18;48.34